Time;durP1;ratioP1;P1;durP2;ratioP2;P2;SDS_P1;SDS_P2;PMS_P1;PMS_P2;Temp;Humidity;BMP_temperature;BMP_pressure;BME280_temperature;BME280_humidity;BME280_pressure;Samples;Min_cycle;Max_cycle;Signal;HPM_P1;HPM_P2
2021/01/16 00:00:30;;;;;;;55.58;28.10;;;;;;;-2.10;82.82;96057.72;5027748;28;20402;-75
2021/01/16 00:02:56;;;;;;;53.60;27.55;;;;;;;-2.11;82.71;96044.88;5031225;28;20049;-74
2021/01/16 00:05:27;;;;;;;54.10;29.17;;;;;;;-1.81;81.57;96057.47;5042442;23;20072;-80
2021/01/16 00:08:13;;;;;;;47.78;27.10;;;;;;;-1.81;81.99;96047.84;5029646;28;20033;-81
2021/01/16 00:10:43;;;;;;;50.60;27.63;;;;;;;-1.63;80.82;96055.84;5030979;28;20045;-81
2021/01/16 00:13:13;;;;;;;55.42;27.35;;;;;;;-2.13;82.15;96045.09;5030808;28;20041;-81
2021/01/16 00:15:39;;;;;;;54.33;28.17;;;;;;;-2.02;82.18;96066.34;5030858;28;20025;-80
2021/01/16 00:18:05;;;;;;;50.83;27.55;;;;;;;-2.10;83.17;96060.34;5033003;28;20044;-80
2021/01/16 00:20:32;;;;;;;54.50;28.67;;;;;;;-2.05;81.66;96035.44;5046456;28;20038;-80
2021/01/16 00:22:57;;;;;;;53.78;28.17;;;;;;;-2.38;83.34;96036.28;5030736;28;20041;-81
2021/01/16 00:25:23;;;;;;;51.05;26.30;;;;;;;-2.28;83.08;96059.31;5030942;28;20041;-80
2021/01/16 00:27:49;;;;;;;49.40;26.42;;;;;;;-2.33;84.13;96059.94;5030745;28;20034;-80
2021/01/16 00:30:17;;;;;;;53.65;27.85;;;;;;;-2.37;83.66;96038.66;5032700;28;20029;-80
2021/01/16 00:32:43;;;;;;;50.47;27.65;;;;;;;-1.97;82.56;96058.69;5030802;28;20794;-80
2021/01/16 00:35:14;;;;;;;48.25;25.67;;;;;;;-2.29;83.36;96068.94;5030879;28;20057;-79
2021/01/16 00:37:42;;;;;;;54.45;28.42;;;;;;;-1.89;81.88;96061.13;5030990;28;20441;-80
2021/01/16 00:40:10;;;;;;;42.58;25.17;;;;;;;-2.17;83.38;96062.13;5030457;28;20037;-80
2021/01/16 00:42:39;;;;;;;49.38;26.48;;;;;;;-2.29;84.22;96066.34;5030643;28;20034;-81
2021/01/16 00:45:06;;;;;;;53.10;27.42;;;;;;;-2.10;83.09;96081.19;5032877;28;20025;-81
2021/01/16 00:47:34;;;;;;;46.03;25.38;;;;;;;-2.21;83.52;96060.91;5030613;28;20038;-80
2021/01/16 00:49:59;;;;;;;46.38;24.90;;;;;;;-2.35;84.03;96069.75;5034793;28;20037;-80
2021/01/16 00:52:24;;;;;;;56.50;29.95;;;;;;;-2.08;83.44;96073.16;5034369;28;20033;-80
2021/01/16 00:54:50;;;;;;;53.30;28.05;;;;;;;-2.23;83.18;96060.31;5034632;28;20072;-80
2021/01/16 00:57:15;;;;;;;55.40;25.92;;;;;;;-2.40;83.92;96065.13;5036749;28;20021;-80
2021/01/16 00:59:40;;;;;;;55.72;29.88;;;;;;;-2.15;83.18;96052.31;5033159;28;20034;-80
2021/01/16 01:02:05;;;;;;;46.95;25.35;;;;;;;-2.15;82.98;96057.53;5050060;28;20188;-81
2021/01/16 01:04:31;;;;;;;47.40;27.27;;;;;;;-2.17;83.42;96071.75;5033320;28;20038;-79
2021/01/16 01:06:56;;;;;;;51.95;26.55;;;;;;;-1.97;82.66;96084.78;5034375;28;20127;-80
2021/01/16 01:09:21;;;;;;;51.97;26.65;;;;;;;-2.08;82.65;96073.16;5034389;28;20025;-80
2021/01/16 01:11:47;;;;;;;43.92;24.02;;;;;;;-2.16;83.13;96084.56;5035064;28;20025;-79
2021/01/16 01:14:12;;;;;;;50.22;26.80;;;;;;;-2.07;83.16;96074.75;5050016;28;20610;-79
2021/01/16 01:16:40;;;;;;;50.78;27.05;;;;;;;-2.04;82.77;96076.97;5049977;28;20065;-80
2021/01/16 01:19:05;;;;;;;52.75;28.75;;;;;;;-1.84;82.73;96063.91;5032928;28;20045;-79
2021/01/16 01:21:30;;;;;;;48.67;25.95;;;;;;;-2.06;81.81;96065.13;5049408;28;20025;-79
2021/01/16 01:23:55;;;;;;;50.47;26.30;;;;;;;-2.22;83.43;96071.53;5036231;28;20072;-80
2021/01/16 01:26:21;;;;;;;49.20;25.77;;;;;;;-2.14;83.08;96079.97;5033796;28;20076;-80
2021/01/16 01:28:46;;;;;;;49.53;24.65;;;;;;;-2.23;83.74;96086.38;5049348;28;20041;-80
2021/01/16 01:31:11;;;;;;;45.38;24.70;;;;;;;-2.31;83.82;96076.16;5033807;28;20068;-79
2021/01/16 01:33:37;;;;;;;48.70;26.17;;;;;;;-2.26;83.34;96072.94;5049321;28;20033;-79
2021/01/16 01:36:03;;;;;;;44.38;25.02;;;;;;;-2.22;83.99;96092.41;5035797;28;20056;-81
2021/01/16 01:38:28;;;;;;;54.88;28.63;;;;;;;-2.23;83.24;96081.19;5033479;28;20491;-79
2021/01/16 01:40:58;;;;;;;50.03;23.33;;;;;;;-2.29;84.33;96099.41;5033692;28;20042;-80
2021/01/16 01:43:24;;;;;;;53.03;27.60;;;;;;;-2.17;83.45;96079.56;5048875;28;20524;-80
2021/01/16 01:45:49;;;;;;;50.40;29.15;;;;;;;-1.95;82.83;96072.31;5033691;28;20065;-80
2021/01/16 01:48:14;;;;;;;54.80;29.05;;;;;;;-2.11;82.77;96069.13;5050856;28;20059;-80
2021/01/16 01:50:40;;;;;;;50.97;26.85;;;;;;;-1.74;81.64;96089.56;5033513;28;20072;-78
2021/01/16 01:53:07;;;;;;;51.40;27.23;;;;;;;-2.15;82.53;96062.75;5032107;28;20133;-80
2021/01/16 01:55:32;;;;;;;46.90;24.48;;;;;;;-2.24;82.85;96069.16;5032227;28;20050;-80
2021/01/16 01:57:59;;;;;;;47.35;25.98;;;;;;;-2.18;82.93;96086.59;5033442;28;20034;-80
2021/01/16 02:00:25;;;;;;;49.50;25.20;;;;;;;-2.22;83.37;96082.78;5032815;28;20067;-80
2021/01/16 02:02:58;;;;;;;43.00;24.70;;;;;;;-2.38;84.45;96081.38;5035089;28;20495;-80
2021/01/16 02:05:23;;;;;;;44.45;24.40;;;;;;;-2.28;84.37;96088.00;5033118;28;20057;-79
2021/01/16 02:07:48;;;;;;;42.00;21.30;;;;;;;-2.40;83.51;96080.78;5033488;28;20479;-79
2021/01/16 02:10:22;;;;;;;47.85;27.42;;;;;;;-1.88;82.32;96083.56;5033291;28;20060;-80
2021/01/16 02:12:52;;;;;;;40.55;22.73;;;;;;;-2.32;83.39;96082.38;5033115;28;20044;-79
2021/01/16 02:15:36;;;;;;;42.75;24.50;;;;;;;-2.31;84.38;96078.75;5033835;28;20029;-80
2021/01/16 02:18:19;;;;;;;46.88;26.00;;;;;;;-2.10;83.32;96088.19;5049083;28;20056;-78
2021/01/16 02:20:47;;;;;;;45.05;24.83;;;;;;;-2.39;83.87;96077.16;5033243;28;20083;-80
2021/01/16 02:23:12;;;;;;;51.00;28.58;;;;;;;-2.18;83.04;96081.38;5032460;28;20037;-80
2021/01/16 02:26:05;;;;;;;38.70;21.58;;;;;;;-2.22;83.56;96077.56;5048158;28;20049;-80
2021/01/16 02:28:35;;;;;;;42.17;22.42;;;;;;;-2.30;83.04;96059.53;5032767;28;20052;-80
2021/01/16 02:31:02;;;;;;;45.95;25.73;;;;;;;-1.97;82.08;96074.34;5032087;28;20038;-80
2021/01/16 02:33:29;;;;;;;39.88;23.17;;;;;;;-2.27;82.57;96063.53;5031453;28;20029;-80
2021/01/16 02:35:58;;;;;;;42.33;22.67;;;;;;;-2.16;82.75;96081.16;5032253;28;20452;-80
2021/01/16 02:39:01;;;;;;;42.72;23.15;;;;;;;-2.17;82.14;96084.78;5032183;28;20399;-80
2021/01/16 02:41:35;;;;;;;45.60;25.42;;;;;;;-2.01;82.69;96078.34;5032318;28;20053;-80
2021/01/16 02:44:42;;;;;;;46.67;25.05;;;;;;;-2.17;82.36;96082.97;5047651;28;20111;-80
2021/01/16 02:47:23;;;;;;;46.00;26.80;;;;;;;-1.81;81.24;96083.56;5026790;28;20454;-80
2021/01/16 02:50:02;;;;;;;46.70;25.65;;;;;;;-1.90;80.85;96091.56;5047758;28;20391;-80
2021/01/16 02:52:29;;;;;;;47.75;25.15;;;;;;;-2.29;83.14;96081.97;5032367;28;20033;-80
2021/01/16 02:54:55;;;;;;;47.50;24.73;;;;;;;-2.29;82.79;96071.56;5032500;28;20116;-80
2021/01/16 02:57:21;;;;;;;43.25;23.00;;;;;;;-2.42;83.59;96074.13;5032445;28;20053;-79
2021/01/16 02:59:47;;;;;;;50.03;27.05;;;;;;;-2.23;82.92;96075.97;5049703;28;20387;-80
2021/01/16 03:02:15;;;;;;;48.28;26.55;;;;;;;-2.22;82.76;96064.53;5032153;28;20395;-80
2021/01/16 03:04:41;;;;;;;42.33;23.90;;;;;;;-2.28;83.18;96080.16;5032326;28;20037;-80
2021/01/16 03:07:08;;;;;;;46.50;24.33;;;;;;;-2.29;83.68;96079.38;5047649;28;20439;-81
2021/01/16 03:09:34;;;;;;;46.20;25.88;;;;;;;-2.31;82.92;96063.13;5031898;28;20032;-81
2021/01/16 03:12:01;;;;;;;46.05;25.25;;;;;;;-2.21;82.48;96066.13;5032883;28;20266;-80
2021/01/16 03:14:31;;;;;;;40.45;24.15;;;;;;;-2.27;83.36;96076.56;5047482;28;20087;-80
2021/01/16 03:17:14;;;;;;;39.10;23.55;;;;;;;-2.13;82.87;96084.19;5047200;28;20502;-80
2021/01/16 03:19:43;;;;;;;46.58;24.98;;;;;;;-2.10;82.40;96060.34;5047051;28;20071;-81
2021/01/16 03:22:25;;;;;;;46.22;24.38;;;;;;;-2.12;82.64;96084.97;5047138;28;20093;-79
2021/01/16 03:24:52;;;;;;;43.20;24.27;;;;;;;-2.09;82.13;96076.78;5030774;28;20049;-80
2021/01/16 03:27:19;;;;;;;41.92;23.60;;;;;;;-2.04;82.10;96084.00;5032816;28;20754;-80
2021/01/16 03:29:51;;;;;;;41.13;24.27;;;;;;;-2.22;82.66;96074.16;5031298;28;20587;-80
2021/01/16 03:32:17;;;;;;;40.33;20.90;;;;;;;-2.33;82.48;96080.78;5030454;28;20133;-80
2021/01/16 03:34:44;;;;;;;41.30;23.95;;;;;;;-2.16;82.22;96086.38;5046864;28;20053;-80
2021/01/16 03:37:10;;;;;;;43.42;23.95;;;;;;;-2.33;83.07;96087.78;5031607;28;20044;-80
2021/01/16 03:39:37;;;;;;;43.38;25.52;;;;;;;-1.90;80.89;96077.75;5031309;28;20021;-80
2021/01/16 03:42:04;;;;;;;42.95;24.48;;;;;;;-1.86;81.07;96078.94;5048963;28;20267;-80
2021/01/16 03:44:30;;;;;;;43.83;24.90;;;;;;;-1.94;81.42;96079.16;5031334;28;20091;-80
2021/01/16 03:46:55;;;;;;;37.55;23.40;;;;;;;-1.91;80.41;96066.50;5030444;28;20030;-80
2021/01/16 03:49:20;;;;;;;41.63;23.85;;;;;;;-2.01;81.65;96076.53;5030199;28;20033;-80
2021/01/16 03:51:46;;;;;;;42.22;25.10;;;;;;;-2.07;81.32;96069.53;5031148;28;20036;-80
2021/01/16 03:54:12;;;;;;;39.72;24.20;;;;;;;-1.79;80.39;96066.72;5033367;28;20437;-80
2021/01/16 03:56:37;;;;;;;40.63;23.75;;;;;;;-2.07;81.28;96084.38;5046868;28;20376;-80
2021/01/16 03:59:03;;;;;;;50.35;22.90;;;;;;;-2.06;81.25;96075.56;5031079;28;20033;-81
2021/01/16 04:01:31;;;;;;;39.90;22.15;;;;;;;-2.14;81.90;96059.13;5031184;28;20100;-80
2021/01/16 04:03:56;;;;;;;38.28;22.10;;;;;;;-2.31;82.11;96057.91;5046775;28;20037;-79
2021/01/16 04:06:22;;;;;;;43.42;22.83;;;;;;;-2.26;82.19;96071.13;5031087;28;20037;-79
2021/01/16 04:08:47;;;;;;;46.05;26.02;;;;;;;-2.04;81.89;96071.75;5032972;28;20033;-81
2021/01/16 04:11:13;;;;;;;48.85;25.90;;;;;;;-1.81;80.93;96068.72;5031083;28;20037;-80
2021/01/16 04:13:38;;;;;;;47.75;26.00;;;;;;;-1.94;81.76;96071.34;5030954;28;20088;-80
2021/01/16 04:16:04;;;;;;;39.03;21.58;;;;;;;-2.39;81.81;96068.53;5046475;28;20154;-81
2021/01/16 04:18:30;;;;;;;49.80;26.33;;;;;;;-2.30;82.06;96063.91;5030706;28;20033;-80
2021/01/16 04:20:56;;;;;;;39.28;23.00;;;;;;;-2.23;82.40;96083.78;5048408;28;20095;-81
2021/01/16 04:23:21;;;;;;;44.05;24.02;;;;;;;-2.34;82.29;96073.97;5036208;28;20120;-80
2021/01/16 04:25:47;;;;;;;40.38;23.15;;;;;;;-2.11;81.13;96084.78;5037285;28;20555;-80
2021/01/16 04:28:12;;;;;;;42.08;23.60;;;;;;;-2.34;81.50;96057.53;5037320;28;20040;-79
2021/01/16 04:30:37;;;;;;;38.50;23.92;;;;;;;-2.20;81.52;96080.78;5037094;28;20078;-80
2021/01/16 04:33:03;;;;;;;46.92;25.52;;;;;;;-2.16;81.79;96063.72;5054675;28;20048;-79
2021/01/16 04:35:29;;;;;;;47.60;24.75;;;;;;;-2.17;81.02;96079.56;5037181;28;20176;-80
2021/01/16 04:37:54;;;;;;;36.83;23.10;;;;;;;-2.28;81.66;96073.16;5036312;28;20120;-80
2021/01/16 04:40:20;;;;;;;44.03;24.90;;;;;;;-2.31;82.50;96067.53;5037020;28;20029;-79
2021/01/16 04:42:46;;;;;;;37.83;20.95;;;;;;;-2.51;82.33;96073.53;5037407;28;20034;-81
2021/01/16 04:45:14;;;;;;;39.13;22.55;;;;;;;-2.39;82.51;96064.13;5039288;28;20036;-79
2021/01/16 04:47:45;;;;;;;38.38;20.75;;;;;;;-2.38;81.54;96072.75;5037394;28;20049;-80
2021/01/16 04:50:19;;;;;;;37.63;21.30;;;;;;;-2.19;81.55;96077.16;5037286;28;20064;-79
2021/01/16 04:52:46;;;;;;;47.10;24.08;;;;;;;-2.21;81.94;96067.94;5037126;28;20051;-80
2021/01/16 04:55:13;;;;;;;36.90;22.10;;;;;;;-2.31;81.86;96067.53;5037424;28;20562;-80
2021/01/16 04:57:40;;;;;;;44.78;22.60;;;;;;;-2.24;82.04;96076.97;5037149;28;20105;-81
2021/01/16 05:00:10;;;;;;;36.67;20.38;;;;;;;-2.36;81.08;96068.94;5038966;28;20084;-80
2021/01/16 05:02:41;;;;;;;36.78;20.88;;;;;;;-2.42;81.52;96071.53;5036875;28;20038;-79
2021/01/16 05:05:10;;;;;;;35.17;20.17;;;;;;;-2.22;80.78;96072.34;5037144;28;20091;-81
2021/01/16 05:07:37;;;;;;;39.90;23.98;;;;;;;-2.29;82.23;96084.59;5037388;28;20034;-80
2021/01/16 05:10:07;;;;;;;40.60;24.75;;;;;;;-2.21;81.86;96080.97;5036359;28;20120;-81
2021/01/16 05:13:03;;;;;;;41.03;23.45;;;;;;;-2.34;81.29;96086.19;5038369;28;20572;-79
2021/01/16 05:15:30;;;;;;;38.58;21.17;;;;;;;-2.38;82.14;96077.97;5037649;28;20037;-79
2021/01/16 05:18:05;;;;;;;35.28;21.27;;;;;;;-2.31;81.92;96063.13;5041679;28;20032;-79
2021/01/16 05:20:32;;;;;;;36.10;22.52;;;;;;;-2.30;81.70;96067.34;5044346;28;20068;-79
2021/01/16 05:23:16;;;;;;;40.85;23.40;;;;;;;-2.34;81.07;96071.34;5044413;28;20037;-77
2021/01/16 05:25:52;;;;;;;42.78;20.60;;;;;;;-2.52;82.13;96077.13;5042400;28;20042;-79
2021/01/16 05:28:20;;;;;;;42.63;23.58;;;;;;;-2.41;81.56;96062.72;5041068;28;20033;-79
2021/01/16 05:30:51;;;;;;;27.27;15.05;;;;;;;-2.54;81.57;96089.56;5039679;28;20132;-75
2021/01/16 05:33:18;;;;;;;40.13;22.13;;;;;;;-2.54;82.49;96093.97;5036538;28;20387;-74
2021/01/16 05:35:44;;;;;;;33.85;18.38;;;;;;;-2.69;82.82;96091.53;5031929;28;20041;-75
2021/01/16 05:38:12;;;;;;;42.08;22.95;;;;;;;-2.50;82.10;96085.56;5032541;28;20553;-75
2021/01/16 05:40:37;;;;;;;44.05;24.10;;;;;;;-2.36;81.71;96094.97;5032041;28;20041;-74
2021/01/16 05:43:04;;;;;;;41.25;21.38;;;;;;;-2.53;82.23;96100.78;5030819;28;20052;-76
2021/01/16 05:45:33;;;;;;;43.95;24.13;;;;;;;-1.98;80.35;96109.25;5032677;28;20017;-75
2021/01/16 05:48:00;;;;;;;44.10;24.70;;;;;;;-1.91;79.90;96089.19;5034684;28;20064;-76
2021/01/16 05:50:25;;;;;;;40.45;24.00;;;;;;;-2.14;80.09;96095.63;5031181;28;20064;-75
2021/01/16 05:52:51;;;;;;;35.17;20.42;;;;;;;-2.36;81.20;96097.59;5032697;28;20041;-75
2021/01/16 05:55:17;;;;;;;43.83;24.58;;;;;;;-2.05;79.92;96087.56;5032609;28;20040;-75
2021/01/16 05:57:47;;;;;;;44.05;25.17;;;;;;;-1.98;80.50;96104.03;5031243;28;20433;-76
2021/01/16 06:00:24;;;;;;;42.83;23.38;;;;;;;-2.08;79.80;96095.81;5033666;28;20026;-75
2021/01/16 06:02:51;;;;;;;39.45;20.30;;;;;;;-2.38;81.26;96093.59;5032909;28;20060;-76
2021/01/16 06:05:26;;;;;;;40.80;22.33;;;;;;;-2.21;81.16;96092.19;5031320;28;20037;-76
2021/01/16 06:07:55;;;;;;;38.20;24.10;;;;;;;-1.86;79.86;96091.97;5031236;28;20048;-76
2021/01/16 06:10:21;;;;;;;40.45;24.10;;;;;;;-1.99;80.08;96092.81;5030864;28;20037;-77
2021/01/16 06:12:51;;;;;;;35.80;22.30;;;;;;;-2.18;80.30;96099.63;5032311;28;20049;-72
2021/01/16 06:15:18;;;;;;;39.47;22.30;;;;;;;-2.19;79.97;96098.03;5033959;28;20022;-74
2021/01/16 06:17:49;;;;;;;40.15;22.40;;;;;;;-2.13;79.76;96096.41;5030317;28;20068;-75
2021/01/16 06:20:21;;;;;;;43.00;24.85;;;;;;;-1.75;79.08;96103.59;5031526;28;20042;-75
2021/01/16 06:22:49;;;;;;;49.55;23.98;;;;;;;-2.04;79.38;96097.03;5031758;28;20045;-75
2021/01/16 06:25:23;;;;;;;51.13;24.15;;;;;;;-1.48;78.11;96101.78;5030587;28;20103;-74
2021/01/16 06:27:50;;;;;;;49.38;27.02;;;;;;;-1.34;76.88;96098.09;5031686;28;20195;-73
2021/01/16 06:30:18;;;;;;;42.47;24.05;;;;;;;-1.54;76.46;96079.06;5033532;28;20112;-75
2021/01/16 06:32:53;;;;;;;44.05;23.70;;;;;;;-1.95;78.39;96091.38;5031713;28;20045;-74
2021/01/16 06:35:20;;;;;;;43.55;23.88;;;;;;;-2.21;78.38;96047.88;5031832;28;20068;-73
2021/01/16 06:37:47;;;;;;;41.25;23.45;;;;;;;-1.91;77.61;96069.13;5031655;28;20043;-74
2021/01/16 06:40:34;;;;;;;39.05;22.33;;;;;;;-2.06;78.70;96080.75;5031286;28;20041;-74
2021/01/16 06:43:01;;;;;;;38.85;22.58;;;;;;;-2.04;78.11;96100.44;5030889;28;20132;-75
2021/01/16 06:45:28;;;;;;;39.15;23.35;;;;;;;-1.83;78.22;96088.97;5029524;28;20027;-74
2021/01/16 06:48:01;;;;;;;38.97;22.90;;;;;;;-2.61;79.59;96054.91;5033512;28;20032;-74
2021/01/16 06:50:35;;;;;;;37.95;23.52;;;;;;;-2.22;78.93;96082.78;5031008;28;20427;-74
2021/01/16 06:53:00;;;;;;;34.83;19.58;;;;;;;-2.40;79.47;96074.75;5031144;28;20091;-75
2021/01/16 06:55:28;;;;;;;39.53;23.33;;;;;;;-2.36;80.00;96104.59;5031313;28;20500;-76
2021/01/16 06:57:54;;;;;;;42.75;23.38;;;;;;;-2.54;79.48;96050.50;5029925;28;20438;-69
2021/01/16 07:00:20;;;;;;;42.00;24.42;;;;;;;-2.38;78.55;96072.75;5033029;28;20033;-71
2021/01/16 07:02:52;;;;;;;44.10;25.00;;;;;;;-2.56;79.75;96064.69;5029952;28;20046;-72
2021/01/16 07:05:17;;;;;;;41.95;23.98;;;;;;;-2.27;79.37;96107.81;5028374;28;20398;-74
2021/01/16 07:07:45;;;;;;;47.67;25.23;;;;;;;-2.85;79.79;96034.63;5028917;28;20042;-73
2021/01/16 07:10:16;;;;;;;44.85;26.65;;;;;;;-2.70;79.90;96017.81;5014261;28;20064;-75
2021/01/16 07:12:47;;;;;;;42.25;24.90;;;;;;;-2.34;80.65;96109.63;5031661;28;20061;-82
2021/01/16 07:15:13;;;;;;;45.65;25.58;;;;;;;-2.19;79.55;96105.03;5033375;28;20422;-82
2021/01/16 07:17:39;;;;;;;42.72;23.80;;;;;;;-2.55;80.59;96102.78;5031894;28;20084;-83
2021/01/16 07:20:06;;;;;;;47.65;26.23;;;;;;;-2.26;80.21;96091.19;5031416;28;20040;-82
2021/01/16 07:22:37;;;;;;;44.10;22.98;;;;;;;-2.59;79.74;96078.13;5031830;28;20095;-84
2021/01/16 07:25:05;;;;;;;42.33;23.90;;;;;;;-2.19;79.35;96098.03;5031686;28;20044;-75
2021/01/16 07:27:32;;;;;;;44.15;24.60;;;;;;;-2.06;78.92;96102.41;5032464;28;20095;-78
2021/01/16 07:30:00;;;;;;;48.28;26.90;;;;;;;-1.68;77.78;96102.59;5038319;28;20034;-76
2021/01/16 07:32:46;;;;;;;43.33;25.25;;;;;;;-2.05;78.55;96113.66;5032722;28;20112;-70
2021/01/16 07:35:19;;;;;;;42.08;25.58;;;;;;;-1.62;77.19;96109.63;5034459;28;20038;-74
2021/01/16 07:37:50;;;;;;;47.80;26.70;;;;;;;-1.35;76.72;96106.94;5036926;28;20033;-73
2021/01/16 07:40:24;;;;;;;41.50;23.55;;;;;;;-2.25;78.82;96092.78;5035243;28;20092;-75
2021/01/16 07:42:50;;;;;;;45.22;27.10;;;;;;;-1.53;77.59;96112.81;5033680;28;20041;-74
2021/01/16 07:45:41;;;;;;;41.40;24.48;;;;;;;-1.48;76.53;96113.00;5032617;28;20491;-73
2021/01/16 07:48:07;;;;;;;46.58;25.58;;;;;;;-1.17;74.51;96111.50;5031697;28;20041;-72
2021/01/16 07:50:40;;;;;;;45.30;25.98;;;;;;;-1.26;74.51;96105.72;5031944;28;20445;-66
2021/01/16 07:53:09;;;;;;;;;;;;;;;-1.41;74.54;96119.00;5028760;28;20080;-67
2021/01/16 07:55:35;;;;;;;42.53;23.38;;;;;;;-1.43;74.79;96112.41;5025973;28;20008;-67
2021/01/16 07:58:31;;;;;;;40.95;24.45;;;;;;;-0.94;74.08;96116.22;5027551;28;20124;-67
2021/01/16 08:01:15;;;;;;;42.42;25.48;;;;;;;-0.91;73.35;96121.06;5030143;28;20049;-73
2021/01/16 08:04:11;;;;;;;40.60;24.00;;;;;;;-1.22;73.05;96122.56;5026653;28;20041;-68
2021/01/16 08:06:51;;;;;;;39.42;23.45;;;;;;;-1.40;74.94;96117.19;5029407;28;20109;-68
2021/01/16 08:09:22;;;;;;;40.08;22.25;;;;;;;-1.90;73.71;95997.69;5030762;28;20034;-68
2021/01/16 08:11:51;;;;;;;37.97;23.15;;;;;;;-1.25;72.75;96026.38;5017872;28;20092;-68
2021/01/16 08:14:22;;;;;;;37.00;23.15;;;;;;;-0.76;71.72;96071.16;5027347;28;20045;-68
2021/01/16 08:17:03;;;;;;;34.92;22.88;;;;;;;-1.35;71.19;95958.19;5028464;28;20073;-68
2021/01/16 08:19:46;;;;;;;34.17;22.25;;;;;;;-1.55;70.29;95986.16;5026817;28;20391;-68
2021/01/16 08:22:16;;;;;;;35.53;22.48;;;;;;;-1.39;72.46;96054.34;5028274;28;20495;-69
2021/01/16 08:25:02;;;;;;;37.05;22.40;;;;;;;-1.16;70.06;96003.47;5028290;28;20511;-68
2021/01/16 08:27:29;;;;;;;32.92;21.92;;;;;;;-0.93;69.37;96008.16;5028000;28;20025;-68
2021/01/16 08:29:55;;;;;;;39.33;23.10;;;;;;;-0.94;71.54;96082.28;5029926;28;20029;-68
2021/01/16 08:32:20;;;;;;;35.15;22.05;;;;;;;-1.45;71.20;95971.66;5028190;28;20030;-68
2021/01/16 08:38:19;;;;;;;31.63;19.33;;;;;;;-0.80;70.89;96096.88;5015399;28;20044;-69
2021/01/16 08:41:03;;;;;;;28.42;20.02;;;;;;;-0.75;68.43;96004.84;5029584;28;20403;-69
2021/01/16 08:43:35;;;;;;;25.02;18.17;;;;;;;-0.47;69.51;96096.69;5028945;28;20053;-69
2021/01/16 08:46:11;;;;;;;28.17;19.80;;;;;;;-1.51;70.13;95988.16;5029210;28;20120;-69
2021/01/16 08:48:38;;;;;;;23.67;17.13;;;;;;;-1.83;70.43;96001.13;5029118;28;20448;-68
2021/01/16 08:51:30;;;;;;;29.13;18.48;;;;;;;-1.21;71.14;96105.91;5031541;28;20100;-67
2021/01/16 08:54:17;;;;;;;26.88;17.65;;;;;;;-0.89;70.42;96106.75;5028854;28;20045;-68
2021/01/16 08:56:46;;;;;;;17.67;11.48;;;;;;;-2.06;70.96;96054.69;5029223;28;20446;-72
2021/01/16 08:59:21;;;;;;;30.05;17.42;;;;;;;-0.79;69.62;96104.50;5028871;28;20041;-72
2021/01/16 09:01:53;;;;;;;25.50;16.85;;;;;;;-1.06;68.22;96009.03;5028758;28;20042;-71
2021/01/16 09:04:20;;;;;;;26.52;18.10;;;;;;;-1.00;70.34;96111.84;5028909;28;20073;-71
2021/01/16 09:06:46;;;;;;;26.58;17.33;;;;;;;-1.62;70.44;96040.97;5020810;28;20044;-73
2021/01/16 09:09:14;;;;;;;26.20;17.05;;;;;;;-1.83;70.68;96039.44;5044520;28;20104;-75
2021/01/16 09:11:40;;;;;;;27.23;19.48;;;;;;;-1.44;70.75;96054.16;5032544;28;20057;-74
2021/01/16 09:14:05;;;;;;;26.30;17.42;;;;;;;-1.09;70.83;96093.78;5031422;28;20051;-72
2021/01/16 09:16:33;;;;;;;26.13;18.35;;;;;;;-0.60;69.47;96076.69;5032511;28;20080;-74
2021/01/16 09:18:59;;;;;;;24.88;15.93;;;;;;;-1.29;71.86;96119.16;5032339;28;20084;-82
2021/01/16 09:21:25;;;;;;;22.92;13.85;;;;;;;-1.64;71.83;96114.25;5033259;28;20499;-77
2021/01/16 09:23:54;;;;;;;16.20;10.63;;;;;;;-1.80;72.67;96117.25;5035241;28;20052;-68
2021/01/16 09:26:20;;;;;;;24.10;16.85;;;;;;;-1.17;72.08;96116.75;5033367;28;20041;-75
2021/01/16 09:28:54;;;;;;;21.88;15.35;;;;;;;-1.27;70.92;96125.00;5034084;28;20041;-78
2021/01/16 09:31:28;;;;;;;22.27;14.90;;;;;;;-1.49;71.42;96118.41;5032586;28;20054;-73
2021/01/16 09:34:17;;;;;;;23.15;15.07;;;;;;;-1.54;72.17;96123.44;5033319;28;20486;-75
2021/01/16 09:36:45;;;;;;;23.17;16.55;;;;;;;-1.49;72.75;96121.81;5031417;28;20041;-71
2021/01/16 09:39:18;;;;;;;21.55;15.10;;;;;;;-1.42;70.91;96112.19;5034211;28;20040;-75
2021/01/16 09:41:46;;;;;;;16.13;10.75;;;;;;;-1.89;72.16;96118.47;5033060;28;20137;-80
2021/01/16 09:44:12;;;;;;;23.58;16.10;;;;;;;-1.21;72.23;96116.34;5032616;28;20041;-76
2021/01/16 09:46:40;;;;;;;21.90;12.77;;;;;;;-1.29;70.92;96121.78;5032611;28;20036;-77
2021/01/16 09:49:07;;;;;;;25.73;15.40;;;;;;;-1.52;72.80;96118.84;5032200;28;20052;-69
2021/01/16 09:51:34;;;;;;;19.80;15.00;;;;;;;-1.76;72.25;96100.19;5033083;28;20124;-79
2021/01/16 09:54:16;;;;;;;19.90;13.32;;;;;;;-1.67;72.22;96109.41;5034699;28;20396;-77
2021/01/16 09:56:49;;;;;;;16.48;11.45;;;;;;;-1.68;71.82;96096.59;5033244;28;20038;-80
2021/01/16 09:59:24;;;;;;;20.27;14.93;;;;;;;-1.78;71.74;96067.50;5032238;28;20038;-76
2021/01/16 10:02:12;;;;;;;24.33;15.68;;;;;;;-1.45;71.07;96077.84;5028310;28;20048;-77
2021/01/16 10:04:42;;;;;;;25.20;16.30;;;;;;;-1.14;70.78;96090.19;5028329;28;20038;-76
2021/01/16 10:07:17;;;;;;;19.60;10.35;;;;;;;-1.42;70.24;96091.31;5032262;28;20042;-77
2021/01/16 10:09:45;;;;;;;15.85;11.77;;;;;;;-1.56;71.00;96074.06;5047943;28;20053;-78
2021/01/16 10:12:33;;;;;;;16.25;12.70;;;;;;;-1.34;70.14;96088.44;5034366;28;20030;-77
2021/01/16 10:15:05;;;;;;;19.23;12.85;;;;;;;-1.37;69.71;96077.66;5026534;28;20470;-79
2021/01/16 10:17:34;;;;;;;19.70;14.73;;;;;;;-0.61;67.82;96069.84;5031183;28;20048;-77
2021/01/16 10:20:05;;;;;;;21.23;14.48;;;;;;;-0.36;66.70;96076.91;5032437;28;20034;-79
2021/01/16 10:22:30;;;;;;;17.55;12.70;;;;;;;-0.63;67.32;96064.03;5032290;28;20044;-78
2021/01/16 10:24:59;;;;;;;16.17;13.35;;;;;;;-0.72;67.34;96046.19;5032254;28;20030;-77
2021/01/16 10:27:51;;;;;;;17.38;11.35;;;;;;;-0.70;68.67;96059.88;5032005;28;20097;-80
2021/01/16 10:30:24;;;;;;;17.48;13.40;;;;;;;-0.02;65.40;96050.28;5034285;28;20040;-78
2021/01/16 10:32:51;;;;;;;14.18;10.48;;;;;;;-0.74;66.96;96063.91;5032334;28;20037;-76
2021/01/16 10:35:22;;;;;;;13.38;9.18;;;;;;;-1.13;68.22;96060.47;5031814;28;20037;-77
2021/01/16 10:37:49;;;;;;;16.25;10.02;;;;;;;-0.92;67.72;96059.34;5044674;28;20491;-78
2021/01/16 10:40:15;;;;;;;18.13;13.27;;;;;;;-0.27;66.28;96049.50;5032010;28;20037;-74
2021/01/16 10:42:42;;;;;;;17.88;13.35;;;;;;;-0.09;65.16;96038.31;5031672;28;20386;-72
2021/01/16 10:45:09;;;;;;;14.63;12.45;;;;;;;0.31;63.13;96025.66;5032332;28;20032;-78
2021/01/16 10:47:37;;;;;;;14.90;12.35;;;;;;;-0.02;63.36;96005.03;5031818;28;20407;-78
2021/01/16 10:50:24;;;;;;;15.60;13.10;;;;;;;0.65;63.11;96028.69;5032036;28;20049;-79
2021/01/16 10:53:00;;;;;;;16.27;12.80;;;;;;;0.80;62.31;96038.78;5031476;28;20061;-79
2021/01/16 10:55:46;;;;;;;18.20;14.05;;;;;;;-0.29;64.52;95986.19;5031285;28;20037;-80
2021/01/16 10:58:20;;;;;;;17.75;12.15;;;;;;;-0.80;67.19;96023.75;5030623;28;20106;-77
2021/01/16 11:00:54;;;;;;;17.65;12.57;;;;;;;-0.37;66.31;96021.22;5030635;28;20124;-77
2021/01/16 11:03:24;;;;;;;20.77;13.02;;;;;;;-0.52;66.16;96005.84;5033353;28;20033;-76
2021/01/16 11:05:52;;;;;;;15.70;12.48;;;;;;;-0.65;66.34;96000.75;5030527;28;20057;-77
2021/01/16 11:08:26;;;;;;;19.15;14.40;;;;;;;-0.37;66.39;96002.91;5030038;28;20045;-76
2021/01/16 11:10:51;;;;;;;19.17;15.15;;;;;;;0.03;65.98;95996.53;5031660;28;20125;-75
2021/01/16 11:13:22;;;;;;;16.35;13.15;;;;;;;-0.35;66.85;96000.91;5029607;28;20060;-74
2021/01/16 11:15:57;;;;;;;16.80;13.03;;;;;;;-1.03;68.56;95992.94;5031335;28;20115;-76
2021/01/16 11:18:41;;;;;;;14.60;9.93;;;;;;;-0.88;68.00;95998.66;5030955;28;20051;-75
2021/01/16 11:21:09;;;;;;;16.38;12.38;;;;;;;-1.07;69.31;95987.34;5032661;28;20060;-75
2021/01/16 11:23:56;;;;;;;20.23;14.10;;;;;;;-0.72;68.61;95992.13;5029175;28;20050;-76
2021/01/16 11:26:24;;;;;;;18.70;12.05;;;;;;;-0.62;68.35;95966.31;5030717;28;20060;-75
2021/01/16 11:28:54;;;;;;;20.17;14.57;;;;;;;-0.50;68.19;95994.41;5030308;28;20407;-74
2021/01/16 11:31:32;;;;;;;21.50;14.93;;;;;;;-0.61;68.76;95994.09;5029884;28;20048;-73
2021/01/16 11:34:09;;;;;;;21.90;14.82;;;;;;;-0.44;68.53;95990.94;5030709;28;20403;-76